createdAt,value
2023-02-11T00:02:01.515Z,79.85
2023-02-11T00:05:05.564Z,80.12
2023-02-11T00:08:08.756Z,80.35
2023-02-11T00:11:17.616Z,79.54
2023-02-11T00:14:20.951Z,78.78
2023-02-11T00:17:24.224Z,79.22
2023-02-11T00:20:27.283Z,78.84
2023-02-11T00:23:31.332Z,78.80
2023-02-11T00:26:36.030Z,79.12
2023-02-11T00:29:39.706Z,78.63
2023-02-11T00:32:42.823Z,78.54
2023-02-11T00:35:47.545Z,80.78
2023-02-11T00:38:53.464Z,81.00
2023-02-11T00:41:59.130Z,80.96
2023-02-11T00:45:04.658Z,79.53
2023-02-11T00:48:08.132Z,79.44
2023-02-11T00:51:12.092Z,78.94
2023-02-11T00:54:15.631Z,79.00
2023-02-11T00:57:19.391Z,79.09
2023-02-11T01:00:22.953Z,78.88
2023-02-11T01:03:26.421Z,78.66
2023-02-11T01:06:31.222Z,76.86
2023-02-11T01:09:34.336Z,76.75
2023-02-11T01:12:38.114Z,76.82
2023-02-11T01:15:41.508Z,76.51
2023-02-11T01:18:44.992Z,77.34
2023-02-11T01:21:48.261Z,77.59
2023-02-11T01:24:51.793Z,76.12
2023-02-11T01:27:55.023Z,76.55
2023-02-11T01:30:58.884Z,77.33
2023-02-11T01:34:03.596Z,77.32
2023-02-11T01:37:07.356Z,76.27
2023-02-11T01:40:16.939Z,76.33
2023-02-11T01:43:21.845Z,76.86
2023-02-11T01:46:36.621Z,77.48
2023-02-11T01:49:46.650Z,78.00
2023-02-11T01:52:49.892Z,78.92
2023-02-11T08:06:41.905Z,69.66
2023-02-11T08:09:45.702Z,68.29
2023-02-11T08:12:48.856Z,77.59
2023-02-11T08:15:52.585Z,75.12
2023-02-11T08:18:57.812Z,74.19
2023-02-11T08:22:01.540Z,72.95
2023-02-11T08:25:04.823Z,72.67
2023-02-11T08:28:09.429Z,72.40
2023-02-11T08:31:16.803Z,71.55
2023-02-11T08:34:20.291Z,66.57
2023-02-11T08:37:24.753Z,63.19
2023-02-11T08:40:29.688Z,63.52
2023-02-11T08:43:33.571Z,62.73
2023-02-11T08:46:37.551Z,64.70
2023-02-11T08:49:42.516Z,63.42
2023-02-11T08:52:45.879Z,63.79
2023-02-11T08:55:53.449Z,62.41
2023-02-11T08:58:56.981Z,60.63
2023-02-11T09:02:00.213Z,60.78
2023-02-11T09:05:03.807Z,60.19
2023-02-11T09:08:07.007Z,61.71
2023-02-11T09:11:11.276Z,60.83
2023-02-11T09:14:20.593Z,61.60
2023-02-11T11:08:52.897Z,60.09
2023-02-11T11:20:29.502Z,57.29
2023-02-11T11:23:32.434Z,58.12
2023-02-11T11:26:44.876Z,57.31
2023-02-11T11:29:53.688Z,59.77
2023-02-11T11:32:56.909Z,59.09
2023-02-11T11:36:04.864Z,58.40
2023-02-11T11:39:24.647Z,56.36
2023-02-11T11:42:33.414Z,56.57
2023-02-11T11:45:36.467Z,56.29
2023-02-11T11:48:41.641Z,54.99
2023-02-11T11:51:51.506Z,56.32
2023-02-11T11:55:00.601Z,53.97
2023-02-11T11:58:04.872Z,53.81
2023-02-11T12:01:13.250Z,51.41
2023-02-11T12:04:41.865Z,52.21
2023-02-11T12:08:03.426Z,50.36
2023-02-11T12:11:21.694Z,49.40
2023-02-11T12:14:43.276Z,49.99
2023-02-11T12:18:01.902Z,49.63
2023-02-11T12:21:17.555Z,49.63
2023-02-11T12:24:37.187Z,48.09
2023-02-11T12:27:54.625Z,50.75
2023-02-11T12:31:04.954Z,51.10
2023-02-11T12:34:17.408Z,51.30
2023-02-11T12:37:42.840Z,49.55
2023-02-11T12:41:10.336Z,44.94
2023-02-11T12:44:52.333Z,47.41
2023-02-11T12:48:07.514Z,47.44
2023-02-11T12:51:35.979Z,48.25
2023-02-11T12:54:53.394Z,50.11
2023-02-11T12:57:59.918Z,47.77
2023-02-11T13:01:15.394Z,47.87
2023-02-11T13:04:47.762Z,47.69
2023-02-11T13:07:52.136Z,48.46
2023-02-11T13:10:58.229Z,46.50
2023-02-11T13:14:14.716Z,45.52
2023-02-11T13:17:26.540Z,45.04
2023-02-11T13:20:29.613Z,44.51
2023-02-11T13:23:51.140Z,43.83
2023-02-11T13:27:33.388Z,44.84
2023-02-11T13:30:41.464Z,44.19
2023-02-11T13:33:46.284Z,43.97
2023-02-11T13:36:57.308Z,43.71
2023-02-11T13:40:01.326Z,44.28
2023-02-11T13:43:06.927Z,44.64
2023-02-11T13:46:12.924Z,44.21
2023-02-11T13:49:21.001Z,45.73
2023-02-11T13:52:32.687Z,46.44
2023-02-11T13:55:36.513Z,45.93
2023-02-11T13:58:50.225Z,45.76
2023-02-11T14:02:11.992Z,44.59
2023-02-11T14:05:34.259Z,41.95
2023-02-11T14:09:11.286Z,38.94
2023-02-11T14:12:31.549Z,39.93
2023-02-11T14:15:41.695Z,43.06
2023-02-11T14:18:50.113Z,45.37
2023-02-11T14:21:52.950Z,46.42
2023-02-11T14:25:01.220Z,47.62
2023-02-11T14:28:13.598Z,48.58
2023-02-11T14:31:44.019Z,47.47
2023-02-11T14:35:15.890Z,46.90
2023-02-11T14:38:43.569Z,45.37
2023-02-11T14:41:49.580Z,43.75
2023-02-11T14:44:57.121Z,44.55
2023-02-11T14:48:17.434Z,46.55
2023-02-11T14:51:27.659Z,48.04
2023-02-11T14:54:32.560Z,48.75
2023-02-11T14:57:38.079Z,49.06
2023-02-11T15:00:53.918Z,48.55
2023-02-11T15:03:59.847Z,47.66
2023-02-11T15:07:08.122Z,48.16
2023-02-11T15:10:23.645Z,49.38
2023-02-11T15:13:31.211Z,50.22
2023-02-11T15:16:35.706Z,50.62
2023-02-11T15:19:41.840Z,50.98
2023-02-11T15:22:46.786Z,51.57
2023-02-11T15:25:56.497Z,52.00
2023-02-11T15:29:02.164Z,52.80
2023-02-11T15:32:09.761Z,52.74
2023-02-11T15:35:15.113Z,53.34
2023-02-11T15:38:19.067Z,53.98
2023-02-11T15:41:36.622Z,54.38
2023-02-11T15:44:40.488Z,54.71
2023-02-11T15:47:51.453Z,54.62
2023-02-11T15:51:02.737Z,55.46
2023-02-11T15:54:22.368Z,55.80
2023-02-11T15:57:28.065Z,55.87
2023-02-11T16:00:36.996Z,56.20
2023-02-11T16:03:43.068Z,56.79
2023-02-11T16:06:48.397Z,56.84
2023-02-11T16:09:58.096Z,57.19
2023-02-11T16:13:08.401Z,57.16
2023-02-11T16:16:20.718Z,57.41
2023-02-11T16:19:27.421Z,57.24
2023-02-11T16:22:35.961Z,57.61
2023-02-11T16:25:44.522Z,57.33
2023-02-11T16:28:50.809Z,57.72
2023-02-11T16:32:06.229Z,57.50
2023-02-11T16:35:12.158Z,58.17
2023-02-11T16:38:17.845Z,58.26
2023-02-11T16:41:22.656Z,58.25
2023-02-11T16:44:27.211Z,58.52
2023-02-11T16:47:32.040Z,58.59
2023-02-11T16:50:37.694Z,58.03
2023-02-11T16:53:41.585Z,56.80
2023-02-11T16:56:45.509Z,56.53
2023-02-11T16:59:50.735Z,57.21
2023-02-11T17:02:56.243Z,57.22
2023-02-11T17:06:05.412Z,57.57
2023-02-11T17:09:21.189Z,58.25
2023-02-11T17:12:25.675Z,58.42
2023-02-11T17:15:30.518Z,58.86
2023-02-11T17:18:34.687Z,59.15
2023-02-11T17:21:38.507Z,59.40
2023-02-11T17:24:43.112Z,59.38
2023-02-11T17:27:47.229Z,59.28
2023-02-11T17:30:54.882Z,59.16
2023-02-11T17:33:58.816Z,59.70
2023-02-11T17:37:09.538Z,60.13
2023-02-11T17:40:15.029Z,60.25
2023-02-11T17:43:21.175Z,60.20
2023-02-11T17:46:25.380Z,60.88
2023-02-11T17:49:30.334Z,60.93
2023-02-11T17:52:34.376Z,60.63
2023-02-11T17:55:39.141Z,60.82
2023-02-11T17:58:43.396Z,60.94
2023-02-11T18:01:47.687Z,61.06
2023-02-11T18:04:56.056Z,61.18
2023-02-11T18:08:01.069Z,61.70
2023-02-11T18:11:11.999Z,61.30
2023-02-11T18:14:21.564Z,61.05
2023-02-11T18:17:26.709Z,61.02
2023-02-11T18:20:32.692Z,60.83
2023-02-11T18:23:37.264Z,60.81
2023-02-11T18:26:42.297Z,60.39
2023-02-11T18:29:46.522Z,60.97
2023-02-11T18:32:56.325Z,60.91
2023-02-11T18:36:02.869Z,60.98
2023-02-11T18:39:07.218Z,61.22
2023-02-11T18:42:13.247Z,61.82
2023-02-11T18:45:17.497Z,61.99
2023-02-11T18:48:22.877Z,62.20
2023-02-11T18:51:27.767Z,62.61
2023-02-11T18:54:35.837Z,62.32
2023-02-11T18:57:41.809Z,62.47
2023-02-11T19:00:48.284Z,63.77
2023-02-11T19:03:55.751Z,63.51
2023-02-11T19:07:06.055Z,62.76
2023-02-11T19:10:10.824Z,63.61
2023-02-11T19:13:15.479Z,63.04
2023-02-11T19:16:20.355Z,63.05
2023-02-11T19:19:26.456Z,63.31
2023-02-11T19:22:30.636Z,63.32
2023-02-11T19:25:37.809Z,63.92
2023-02-11T19:28:42.249Z,64.11
2023-02-11T19:31:47.076Z,63.49
2023-02-11T19:34:52.913Z,63.54
2023-02-11T19:37:57.850Z,63.80
2023-02-11T19:41:01.954Z,63.23
2023-02-11T19:44:10.169Z,63.50
2023-02-11T19:47:16.583Z,62.98
2023-02-11T19:50:21.092Z,63.64
2023-02-11T19:53:25.717Z,63.56
2023-02-11T19:56:30.598Z,63.89
2023-02-11T19:59:34.585Z,63.34
2023-02-11T20:02:41.029Z,64.14
2023-02-11T20:05:48.962Z,63.83
2023-02-11T20:09:01.542Z,63.68
2023-02-11T20:12:05.454Z,64.58
2023-02-11T20:15:10.344Z,64.51
2023-02-11T20:18:14.818Z,64.52
2023-02-11T20:21:27.420Z,64.79
2023-02-11T20:24:34.171Z,65.28
2023-02-11T20:27:39.419Z,66.21
2023-02-11T20:30:45.488Z,66.20
2023-02-11T20:33:51.618Z,66.16
2023-02-11T20:36:59.655Z,66.64
2023-02-11T20:40:03.967Z,67.01
2023-02-11T20:43:08.529Z,68.07
2023-02-11T20:46:17.874Z,68.25
2023-02-11T20:49:24.891Z,69.15
2023-02-11T20:52:29.497Z,69.45
2023-02-11T20:55:39.600Z,69.83
2023-02-11T20:58:43.765Z,70.13
2023-02-11T21:01:51.145Z,70.82
2023-02-11T21:04:55.487Z,71.00
2023-02-11T21:08:00.249Z,70.54
2023-02-11T21:11:04.441Z,70.87
2023-02-11T21:14:12.668Z,70.85
2023-02-11T21:17:16.418Z,70.95
2023-02-11T21:20:24.269Z,71.13
2023-02-11T21:23:29.573Z,70.97
2023-02-11T21:26:36.044Z,71.85
2023-02-11T21:29:52.622Z,72.06
2023-02-11T21:33:03.333Z,72.10
2023-02-11T21:36:08.566Z,72.30
2023-02-11T21:39:19.458Z,72.69
2023-02-11T21:42:24.507Z,72.95
2023-02-11T21:45:30.214Z,72.84
2023-02-11T21:48:35.610Z,74.29
2023-02-11T21:51:39.894Z,74.38
2023-02-11T21:54:42.892Z,73.91
2023-02-11T21:57:47.132Z,74.73
2023-02-11T22:00:50.802Z,75.47
2023-02-11T22:03:54.986Z,76.36
2023-02-11T22:06:58.601Z,76.45
2023-02-11T22:10:03.895Z,77.51
2023-02-11T22:13:07.457Z,78.03
2023-02-11T22:16:15.317Z,77.45
2023-02-11T22:19:19.059Z,78.61
2023-02-11T22:22:22.654Z,78.19
2023-02-11T22:25:25.748Z,78.70
2023-02-11T22:28:30.195Z,78.56
2023-02-11T22:31:34.900Z,79.48
2023-02-11T22:34:38.136Z,79.31
2023-02-11T22:37:41.871Z,78.93
2023-02-11T22:40:45.034Z,79.13
2023-02-11T22:43:48.784Z,80.69
2023-02-11T22:46:52.830Z,79.73
2023-02-11T22:49:56.933Z,79.94
2023-02-11T22:53:00.375Z,81.12
2023-02-11T22:56:08.583Z,81.96
2023-02-11T22:59:14.198Z,82.91
